Kirishima Maru No.5 — JD2506 — position and weather

sailwx.info

Track history (hours):
 
Tides and Currents Weather Stations Pressure Air Temp Water Temp Dewpoint Dewpoint Depression Visibility Wind Speed Wind Dir Waves Ship Positions

Kirishima Maru No.5

Last reported at 2014-Aug-19 23:31 UTC. Time now 2014-Aug-22 23:43 UTC.
Position N 36°18' E 141°01'.

Length 105 m; draft 5.3 m.

Type: Tanker. MMSI: 431000338.

Date/timePositionNaut miles runAvg speedWind from/ knotsBaromVisibWave heightAir tempDewpointWater temp
2014-Aug-19 23:31N 36°18' E 141°01'1414.2
2014-Aug-19 22:33N 36°05' E 140°60'1514.8
2014-Aug-19 21:33N 35°50' E 140°59'3414.5
2014-Aug-19 19:14N 35°20' E 140°39'1015.2
2014-Aug-19 18:33N 35°12' E 140°32'1616.0
2014-Aug-19 17:32N 35°01' E 140°17'1916.4
2014-Aug-19 16:23N 34°51' E 139°57'1416.0
2014-Aug-19 15:31N 34°45' E 139°42'23813.2
2014-Aug-18 21:29N 34°02' E 134°59'1414.8
2014-Aug-18 20:31N 34°16' E 134°58'1414.9
2014-Aug-18 19:33N 34°30' E 135°02'9 0.2
2014-Aug-17 00:15N 34°35' E 134°52'912.4
2014-Aug-16 23:33N 34°37' E 135°02'1211.9
2014-Aug-16 22:33N 34°25' E 135°02'1312.8
2014-Aug-16 21:33N 34°12' E 134°59'24411.4
2014-Aug-16 00:08N 34°48' E 139°52'1214.3
2014-Aug-15 23:20N 34°54' E 140°04'5012.9
2014-Aug-15 19:26N 35°30' E 140°48'29 0.6
2014-Aug-13 17:09N 35°57' E 140°59'914.8
2014-Aug-13 16:33N 35°48' E 140°58'1514.4
2014-Aug-13 15:32N 35°34' E 140°53'3216.2
2014-Aug-13 13:33N 35°09' E 140°29'1616.1
2014-Aug-13 12:33N 34°59' E 140°13'1515.3
2014-Aug-13 11:33N 34°51' E 139°57'25112.5
2014-Aug-12 15:33N 34°05' E 134°58'1814.0
2014-Aug-12 14:16N 34°23' E 134°60'1013.9
2014-Aug-12 13:33N 34°32' E 135°02'9 7.7
2014-Aug-12 12:24N 34°34' E 134°52'8 0.4
2014-Aug-11 13:33N 34°37' E 135°01'1313.2
2014-Aug-11 12:33N 34°24' E 135°03'1515.3
2014-Aug-11 11:33N 34°09' E 134°60'  
Track history (hours):
 
Tides and Currents Weather Stations Pressure Air Temp Water Temp Dewpoint Dewpoint Depression Visibility Wind Speed Wind Dir Waves Ship Positions

Kirishima Maru No.5

Last reported at 2014-Aug-19 23:31 UTC. Time now 2014-Aug-22 23:43 UTC.
Position N 36°18' E 141°01'.

Length 105 m; draft 5.3 m.

Type: Tanker. MMSI: 431000338.

Date/timePositionNaut miles runAvg speedWind from/ knotsBaromVisibWave heightAir tempDewpointWater temp
2014-Aug-19 23:31N 36°18' E 141°01'1414.2
2014-Aug-19 22:33N 36°05' E 140°60'1514.8
2014-Aug-19 21:33N 35°50' E 140°59'3414.5
2014-Aug-19 19:14N 35°20' E 140°39'1015.2
2014-Aug-19 18:33N 35°12' E 140°32'1616.0
2014-Aug-19 17:32N 35°01' E 140°17'1916.4
2014-Aug-19 16:23N 34°51' E 139°57'1416.0
2014-Aug-19 15:31N 34°45' E 139°42'23813.2
2014-Aug-18 21:29N 34°02' E 134°59'1414.8
2014-Aug-18 20:31N 34°16' E 134°58'1414.9
2014-Aug-18 19:33N 34°30' E 135°02'9 0.2
2014-Aug-17 00:15N 34°35' E 134°52'912.4
2014-Aug-16 23:33N 34°37' E 135°02'1211.9
2014-Aug-16 22:33N 34°25' E 135°02'1312.8
2014-Aug-16 21:33N 34°12' E 134°59'24411.4
2014-Aug-16 00:08N 34°48' E 139°52'1214.3
2014-Aug-15 23:20N 34°54' E 140°04'5012.9
2014-Aug-15 19:26N 35°30' E 140°48'29 0.6
2014-Aug-13 17:09N 35°57' E 140°59'914.8
2014-Aug-13 16:33N 35°48' E 140°58'1514.4
2014-Aug-13 15:32N 35°34' E 140°53'3216.2
2014-Aug-13 13:33N 35°09' E 140°29'1616.1
2014-Aug-13 12:33N 34°59' E 140°13'1515.3
2014-Aug-13 11:33N 34°51' E 139°57'25112.5
2014-Aug-12 15:33N 34°05' E 134°58'1814.0
2014-Aug-12 14:16N 34°23' E 134°60'1013.9
2014-Aug-12 13:33N 34°32' E 135°02'9 7.7
2014-Aug-12 12:24N 34°34' E 134°52'8 0.4
2014-Aug-11 13:33N 34°37' E 135°01'1313.2
2014-Aug-11 12:33N 34°24' E 135°03'1515.3
2014-Aug-11 11:33N 34°09' E 134°60'  

Dump ship's entire track history